Litchfield, OH (44253)

2:26 PM EDT on May 29, 2015 (GMT -0400)
Crow Corner | | Change Station
CLOSE
Current Station
Personal Weather Station
Location: Litchfield, OH
Elevation: 889 ft
Nearby Weather Stations

Elev 889 ft 41.19 °N, 82.06 °W | Updated 4 minutes ago

Partly Cloudy
Partly Cloudy
84.2 °F
Feels Like 92 °F
N
11.9
Wind Variable Wind from SSW

Today
High -- | Low -- °F
--% Chance of Precip.
Yesterday
High -- | Low -- °F
Precip. -- in
5:59 AM 8:52 PM
Waxing Gibbous, 85% visible
Pressure 30.12 in
Visibility 10.0 miles
Clouds Few 4200 ft
Scattered Clouds 7500 ft
Mostly Cloudy 11000 ft
Heat Index 92 °F
Dew Point 74 °F
Humidity 72%
Rainfall 0.00 in
Snow Depth Not available.
UV 6 out of 12
Pollen 8.30 out of 12
Air Quality Not available.
Flu Activity Local Activity
METAR KLPR 291753Z AUTO 21014G21KT 10SM FEW042 SCT075 BKN110 28/17 A3013 RMK AO2 SLP197 T02830172 10283 20189 58010 TSNO

More Conditions Fewer Conditions

Pressure 30.12 in
Visibility 10.0 miles
Clouds Few 4200 ft
Scattered Clouds 7500 ft
Mostly Cloudy 11000 ft
Heat Index 92 °F
Dew Point 74 °F
Humidity 72%
Rainfall 0.00 in
Snow Depth Not available.
UV 6 out of 12
Pollen 8.30 out of 12
Air Quality Not available.
Flu Activity Local Activity
METAR KLPR 291753Z AUTO 21014G21KT 10SM FEW042 SCT075 BKN110 28/17 A3013 RMK AO2 SLP197 T02830172 10283 20189 58010 TSNO

More Conditions Fewer Conditions

10-Day Weather Forecast

Almanac

Astronomy

May. 29, 2015 Rise Set
Actual Time
Civil Twilight
Nautical Twilight
Astronomical Twilight
Moon
Length of Visible Light
Length of Day
Tomorrow will be .
, % of the Moon is Illuminated

Today's Extremes

State Highs State Lows

Community

WunderPhotos

Upload Photos

1,825,321 photos uploaded!

WunderBlogs® & News

Nearby

Air Quality

  Air Quality AQ Index Pollutant
Not available.

Snow Depth

Station Depth Elevation

Earthquake Activity

City Distance Mag. Time & Date
Minimum magnitude displayed is 2.5.

Coastal Water Temperatures

Place Temperature

Stations

Nearby Weather Stations

Station Location Temp. Windchill Dew Point Humidity Wind Precip. Elev Updated Type